Terminal Aerodrome Forecast
Issued by NWS

Home | Current Version | Previous Version | Text Only | Print | Product List | Glossary On
Versions: 1 2 3 4 5 6 7 8 9 10 11 12 13 14 15 16 17 18 19 20 21 22 23 24 25 26 27 28 29 30 31 32 33 34 35 36 37 38 39 40 41 42 43 44 45 46 47 48 49 50
000
FTUS45 KBOU 280306 AAB
TAFBJC
TAF AMD
KBJC 280306Z 2803/2824 23006KT P6SM VCSH SCT060 BKN120
     FM280500 10006KT P6SM SCT050 BKN080
     FM281000 35005KT P6SM FEW025 SCT040 BKN200
     FM281200 VRB03KT P6SM SCT010 BKN025
     FM281600 01006KT P6SM SCT040 BKN060
     FM282000 06007KT P6SM VCSH SCT060 BKN100 PROB30 2822/2824
      VRB20G30KT -TSRA BKN050CB=

USA.gov is the U.S. government's official web portal to all federal, state and local government web resources and services.